Terminal Aerodrome Forecast
Issued by NWS

Home | Current Version | Previous Version | Graphics & Text | Print | Product List | Glossary On
Versions: 1 2 3 4 5 6 7 8 9 10 11 12 13 14 15 16 17 18 19 20 21 22 23 24
565
FTUS43 KABR 231737
TAFMBG
TAF
KMBG 231737Z 2318/2418 30007KT P6SM BKN200
     FM240400 29004KT P6SM FEW250
     FM240700 28004KT 2SM BR SCT150
     FM240900 VRB03KT 4SM BR FEW110
     FM241200 21004KT P6SM BKN100
     FM241700 17004KT P6SM SCT070=

USA.gov is the U.S. government's official web portal to all federal, state and local government web resources and services.